»·PEaware :: N112PC KOSH-KOSH

N112PC :: KOSH-KOSH

FLIGHT INFORMATION

Flight Status: Arrived
Operator: Privately registered:
United States
More flights under this callsign
Pilot: Gabor H. (24209)
Aircraft: CESSNA 172 SKYHAWK
(C172)
More flights by this aircraft type
Origin: KOSH Wittman Regl
United States
Destination: KOSH Wittman Regl
United States
More flights between these airports :: More routes between these airports
Route: +
File this flight plan on PilotEdge
Remarks:
Altitude:
(Current/Filed)
4,500ft
Speed:
(Current/Filed)
0kts
Departed: 13-Jul-20 06:49 AM
Arrived: 13-Jul-20 07:33 AM
Distance/Time
Traveled:
10nm/0:43
Distance/Time
To Go:
Arrived

Flight Plot

Page will automatically refresh every two minutes.

Flight plan parsing failed; only flown route is shown


Map Options




Map Legend


Flown Route
Filed Route
Departure Airport
Arrival Airport
Navaid (VOR, NDB)
Fix

Horizontal Profiles

Position Reports

Time Latitude Longitude Heading Altitude Ground
Speed
13-Jul-20 06:47 43.886734 -88.765040 44 1800ft 92kts
13-Jul-20 06:48 43.886734 -88.765040 44 1800ft 92kts
13-Jul-20 06:49 43.886734 -88.765040 44 1800ft 92kts
13-Jul-20 06:50 43.886734 -88.765040 44 1800ft 92kts
13-Jul-20 06:51 43.886734 -88.765040 44 1800ft 92kts
13-Jul-20 06:52 43.886734 -88.765040 44 1800ft 92kts
13-Jul-20 06:53 43.886734 -88.765040 44 1800ft 92kts
13-Jul-20 06:54 43.886734 -88.765040 44 1800ft 92kts
13-Jul-20 06:55 43.886734 -88.765040 44 1800ft 92kts
13-Jul-20 06:56 43.886734 -88.765040 44 1800ft 92kts
13-Jul-20 06:57 43.886734 -88.765040 44 1800ft 92kts
13-Jul-20 06:58 43.886734 -88.765040 44 1800ft 92kts
13-Jul-20 06:59 43.886734 -88.765040 44 1800ft 92kts
13-Jul-20 07:00 43.886734 -88.765040 44 1800ft 92kts
13-Jul-20 07:01 43.886734 -88.765040 44 1800ft 92kts
13-Jul-20 07:02 43.886734 -88.765040 44 1800ft 92kts
13-Jul-20 07:03 43.886734 -88.765040 44 1800ft 92kts
13-Jul-20 07:04 43.886734 -88.765040 44 1800ft 92kts
13-Jul-20 07:05 43.886734 -88.765040 44 1800ft 92kts
13-Jul-20 07:06 43.886734 -88.765040 44 1800ft 92kts
13-Jul-20 07:07 43.886734 -88.765040 44 1800ft 92kts
13-Jul-20 07:08 43.886734 -88.765040 44 1800ft 92kts
13-Jul-20 07:09 43.886734 -88.765040 44 1800ft 92kts
13-Jul-20 07:10 43.887813 -88.763467 44 1800ft 92kts
13-Jul-20 07:11 43.905919 -88.738284 40 1799ft 92kts
13-Jul-20 07:12 43.925505 -88.715110 41 1799ft 92kts
13-Jul-20 07:13 43.945134 -88.691923 36 1760ft 96kts
13-Jul-20 07:14 43.963934 -88.666750 55 1796ft 87kts
13-Jul-20 07:15 43.976448 -88.636437 59 1799ft 92kts
13-Jul-20 07:16 43.989296 -88.605367 58 1799ft 93kts
13-Jul-20 07:17 43.997454 -88.585800 60 1798ft 93kts
13-Jul-20 07:18 43.997454 -88.585800 60 1798ft 93kts
13-Jul-20 07:19 43.997454 -88.585800 60 1798ft 93kts
13-Jul-20 07:20 43.997454 -88.585800 60 1798ft 93kts
13-Jul-20 07:21 43.997454 -88.585800 60 1798ft 93kts
13-Jul-20 07:22 43.997454 -88.585800 60 1798ft 93kts
13-Jul-20 07:23 43.997454 -88.585800 60 1798ft 93kts
13-Jul-20 07:25 43.997454 -88.585800 60 1798ft 93kts
13-Jul-20 07:26 43.997454 -88.585800 60 1798ft 93kts
13-Jul-20 07:27 43.997454 -88.585800 60 1798ft 93kts
13-Jul-20 07:28 43.997454 -88.585800 60 1798ft 93kts
13-Jul-20 07:29 43.997454 -88.585800 60 1798ft 93kts
13-Jul-20 07:30 43.997454 -88.585800 60 1798ft 93kts
13-Jul-20 07:31 43.998531 -88.581851 76 1793ft 93kts
13-Jul-20 07:32 43.997819 -88.545331 174 1434ft 97kts
13-Jul-20 07:33 43.992024 -88.564345 298 785ft 12kts
13-Jul-20 07:34 43.992501 -88.569163 269 791ft 1kts
13-Jul-20 07:35 43.992557 -88.573937 263 799ft 16kts
13-Jul-20 07:36 43.991167 -88.576794 156 809ft 8kts
13-Jul-20 07:40 43.888851 -88.760803 44 1792ft 91kts
13-Jul-20 07:41 43.889067 -88.760508 43 1795ft 91kts
13-Jul-20 07:42 43.889067 -88.760508 43 1795ft 91kts
13-Jul-20 07:43 43.889067 -88.760508 43 1795ft 91kts
13-Jul-20 07:43 43.889538 -88.760738 41 1797ft 90kts
13-Jul-20 07:45 43.890679 -88.759264 41 1797ft 90kts
13-Jul-20 07:46 43.890679 -88.759264 41 1797ft 90kts
13-Jul-20 07:46 43.890679 -88.759264 41 1797ft 90kts

Navigation Log

Ident Type
Flight plan parsing failed, navigation log unavailable